Time;durP1;ratioP1;P1;durP2;ratioP2;P2;SDS_P1;SDS_P2;PMS_P1;PMS_P2;Temp;Humidity;BMP_temperature;BMP_pressure;BME280_temperature;BME280_humidity;BME280_pressure;Samples;Min_cycle;Max_cycle;Signal;HPM_P1;HPM_P2
2024/02/19 00:00:05;;;;;;;13.60;9.27;;;;;;;;;;5111788;28;20196;-83
2024/02/19 00:02:32;;;;;;;11.90;8.60;;;;;;;;;;5098620;28;20664;-84
2024/02/19 00:04:59;;;;;;;14.03;9.77;;;;;;;;;;5090313;28;20646;-83
2024/02/19 00:07:25;;;;;;;15.00;11.07;;;;;;;;;;5090881;28;20221;-83
2024/02/19 00:09:52;;;;;;;16.50;10.97;;;;;;;;;;5091204;28;20224;-83
2024/02/19 00:12:20;;;;;;;17.50;12.30;;;;;;;;;;5091308;28;20200;-83
2024/02/19 00:14:47;;;;;;;18.23;12.43;;;;;;;;;;5091347;28;20196;-83
2024/02/19 00:17:14;;;;;;;14.80;9.90;;;;;;;;;;5091171;28;20250;-84
2024/02/19 00:19:41;;;;;;;14.23;10.63;;;;;;;;;;5091677;28;20220;-82
2024/02/19 00:22:08;;;;;;;16.33;11.67;;;;;;;;;;5073340;28;20251;-83
2024/02/19 00:24:35;;;;;;;28.93;17.00;;;;;;;;;;5090442;28;20253;-84
2024/02/19 00:27:02;;;;;;;22.10;14.60;;;;;;;;;;5091143;28;20231;-83
2024/02/19 00:29:30;;;;;;;26.90;12.20;;;;;;;;;;5092157;28;20224;-83
2024/02/19 00:31:57;;;;;;;15.30;10.37;;;;;;;;;;5083348;28;20200;-84
2024/02/19 00:34:24;;;;;;;14.53;10.37;;;;;;;;;;5074404;28;20700;-83
2024/02/19 00:36:51;;;;;;;17.07;11.07;;;;;;;;;;5074574;28;20193;-83
2024/02/19 00:39:18;;;;;;;18.20;11.27;;;;;;;;;;5091584;28;20727;-84
2024/02/19 00:41:45;;;;;;;17.67;11.33;;;;;;;;;;5094588;28;20199;-83
2024/02/19 00:44:12;;;;;;;16.50;10.17;;;;;;;;;;5094957;28;20257;-83
2024/02/19 00:46:41;;;;;;;17.87;11.13;;;;;;;;;;5094800;28;20291;-83
2024/02/19 00:49:11;;;;;;;15.23;10.13;;;;;;;;;;5094816;28;20590;-83
2024/02/19 00:51:37;;;;;;;16.40;11.40;;;;;;;;;;5093523;28;20588;-82
2024/02/19 00:54:04;;;;;;;13.93;10.10;;;;;;;;;;5094592;28;20203;-83
2024/02/19 00:56:31;;;;;;;15.57;10.27;;;;;;;;;;5094213;28;20199;-84
2024/02/19 00:58:58;;;;;;;14.67;10.57;;;;;;;;;;5077917;28;20205;-83
2024/02/19 01:01:24;;;;;;;17.03;11.10;;;;;;;;;;5074175;28;20204;-83
2024/02/19 01:03:52;;;;;;;14.03;9.73;;;;;;;;;;5074736;28;20205;-82
2024/02/19 01:06:19;;;;;;;16.83;10.00;;;;;;;;;;5073852;28;20200;-83
2024/02/19 01:08:46;;;;;;;15.93;10.77;;;;;;;;;;5074316;28;20217;-83
2024/02/19 01:11:13;;;;;;;14.90;9.70;;;;;;;;;;5073886;28;20201;-83
2024/02/19 01:13:41;;;;;;;13.97;10.40;;;;;;;;;;5074288;28;20220;-83
2024/02/19 01:16:08;;;;;;;14.90;10.13;;;;;;;;;;5072980;28;20197;-84
2024/02/19 01:18:35;;;;;;;16.33;10.40;;;;;;;;;;5093571;28;20619;-83
2024/02/19 01:21:04;;;;;;;14.40;10.53;;;;;;;;;;5094796;28;20240;-83
2024/02/19 01:23:32;;;;;;;15.60;10.23;;;;;;;;;;5094049;28;20200;-83
2024/02/19 01:25:59;;;;;;;15.87;10.00;;;;;;;;;;5093841;28;20671;-84
2024/02/19 01:28:25;;;;;;;14.30;10.10;;;;;;;;;;5092603;28;20227;-83
2024/02/19 01:30:52;;;;;;;17.27;11.17;;;;;;;;;;5093465;28;20200;-84
2024/02/19 01:33:21;;;;;;;15.80;10.33;;;;;;;;;;5093552;28;20626;-83
2024/02/19 01:35:47;;;;;;;14.80;10.53;;;;;;;;;;5094345;28;20607;-84
2024/02/19 01:38:16;;;;;;;18.47;11.17;;;;;;;;;;5093929;28;20564;-84
2024/02/19 01:40:43;;;;;;;15.77;10.20;;;;;;;;;;5091846;28;20196;-84
2024/02/19 01:43:10;;;;;;;15.23;10.40;;;;;;;;;;5092862;28;20601;-83
2024/02/19 01:45:38;;;;;;;19.37;10.87;;;;;;;;;;5079756;28;20194;-83
2024/02/19 01:48:05;;;;;;;15.60;9.83;;;;;;;;;;5098181;28;20283;-83
2024/02/19 01:50:33;;;;;;;17.73;11.37;;;;;;;;;;5082963;28;20197;-83
2024/02/19 01:53:02;;;;;;;23.93;14.67;;;;;;;;;;5073202;28;21075;-84
2024/02/19 01:55:31;;;;;;;20.00;12.63;;;;;;;;;;5073374;28;20580;-84
2024/02/19 01:57:58;;;;;;;15.90;10.43;;;;;;;;;;5074638;28;21574;-84
2024/02/19 02:00:28;;;;;;;21.77;11.97;;;;;;;;;;5093616;28;20628;-83
2024/02/19 02:02:55;;;;;;;17.50;11.27;;;;;;;;;;5093132;28;20250;-83
2024/02/19 02:05:22;;;;;;;28.07;15.67;;;;;;;;;;5092999;28;20278;-84
2024/02/19 02:07:49;;;;;;;20.00;12.27;;;;;;;;;;5093912;28;20200;-84
2024/02/19 02:10:18;;;;;;;18.17;11.23;;;;;;;;;;5090481;28;20641;-84
2024/02/19 02:12:46;;;;;;;18.13;11.73;;;;;;;;;;5099430;28;20586;-84
2024/02/19 02:15:13;;;;;;;19.07;10.70;;;;;;;;;;5103205;28;20192;-85
2024/02/19 02:17:40;;;;;;;16.87;10.93;;;;;;;;;;5099020;28;20195;-84
2024/02/19 02:20:10;;;;;;;18.40;11.57;;;;;;;;;;5097583;28;20234;-84
2024/02/19 02:22:38;;;;;;;15.67;10.30;;;;;;;;;;5092396;28;20196;-83
2024/02/19 02:25:08;;;;;;;20.50;12.57;;;;;;;;;;5104989;28;20196;-83
2024/02/19 02:27:37;;;;;;;19.53;13.17;;;;;;;;;;5113793;28;20579;-84
2024/02/19 02:30:05;;;;;;;19.27;10.80;;;;;;;;;;5113061;28;20223;-84
2024/02/19 02:32:33;;;;;;;18.80;12.07;;;;;;;;;;5112932;28;20199;-84
2024/02/19 02:35:00;;;;;;;13.83;10.13;;;;;;;;;;5112944;28;20204;-83
2024/02/19 02:37:27;;;;;;;16.20;10.63;;;;;;;;;;5112841;28;20195;-83
2024/02/19 02:39:54;;;;;;;18.87;12.87;;;;;;;;;;5112911;28;20257;-83
2024/02/19 02:42:21;;;;;;;17.87;11.97;;;;;;;;;;5109213;28;20323;-84
2024/02/19 02:44:49;;;;;;;16.33;10.73;;;;;;;;;;5092445;28;20571;-83
2024/02/19 02:47:16;;;;;;;17.17;11.37;;;;;;;;;;5101417;28;20202;-84
2024/02/19 02:49:43;;;;;;;15.47;10.50;;;;;;;;;;5092131;28;20228;-83
2024/02/19 02:52:10;;;;;;;14.63;10.50;;;;;;;;;;5092326;28;20192;-84
2024/02/19 02:54:37;;;;;;;28.13;16.97;;;;;;;;;;5092501;28;20200;-83
2024/02/19 02:57:04;;;;;;;25.43;18.23;;;;;;;;;;5091453;28;20223;-83
2024/02/19 02:59:30;;;;;;;36.60;27.00;;;;;;;;;;5092255;28;20199;-83
2024/02/19 03:01:58;;;;;;;34.40;23.53;;;;;;;;;;5092223;28;20192;-84
2024/02/19 03:04:25;;;;;;;30.87;20.03;;;;;;;;;;5092481;28;20204;-84
2024/02/19 03:06:52;;;;;;;20.17;13.83;;;;;;;;;;5092384;28;20196;-83
2024/02/19 03:09:19;;;;;;;25.10;15.53;;;;;;;;;;5091884;28;20226;-84
2024/02/19 03:11:45;;;;;;;16.43;11.20;;;;;;;;;;5092350;28;20192;-84
2024/02/19 03:14:13;;;;;;;17.80;12.37;;;;;;;;;;5098638;28;20274;-84
2024/02/19 03:16:40;;;;;;;23.03;12.30;;;;;;;;;;5098509;28;20196;-84
2024/02/19 03:19:10;;;;;;;13.97;10.17;;;;;;;;;;5091911;28;20227;-83
2024/02/19 03:21:36;;;;;;;20.47;15.50;;;;;;;;;;5104279;28;20223;-84
2024/02/19 03:24:04;;;;;;;28.37;20.50;;;;;;;;;;5113117;28;20591;-84
2024/02/19 03:26:31;;;;;;;24.13;15.80;;;;;;;;;;5093971;28;20650;-83
2024/02/19 03:28:58;;;;;;;19.37;14.10;;;;;;;;;;5091727;28;20216;-84
2024/02/19 03:31:24;;;;;;;18.37;11.77;;;;;;;;;;5092344;28;20196;-84
2024/02/19 03:33:51;;;;;;;15.53;10.10;;;;;;;;;;5092090;28;20228;-83
2024/02/19 03:36:19;;;;;;;13.43;10.90;;;;;;;;;;5091802;28;20196;-83
2024/02/19 03:38:46;;;;;;;16.40;10.80;;;;;;;;;;5091692;28;20192;-84
2024/02/19 03:41:13;;;;;;;17.47;11.30;;;;;;;;;;5091413;28;20250;-84
2024/02/19 03:43:40;;;;;;;17.30;11.87;;;;;;;;;;5086003;28;20197;-83
2024/02/19 03:46:07;;;;;;;14.63;10.20;;;;;;;;;;5087693;28;20199;-84
2024/02/19 03:48:34;;;;;;;13.63;10.03;;;;;;;;;;5091461;28;20200;-84
2024/02/19 03:51:01;;;;;;;16.90;11.20;;;;;;;;;;5090599;28;20219;-83
2024/02/19 03:53:30;;;;;;;14.07;9.70;;;;;;;;;;5091207;28;20201;-83
2024/02/19 03:55:58;;;;;;;15.60;11.27;;;;;;;;;;5091859;28;20239;-84
2024/02/19 03:58:25;;;;;;;14.20;10.73;;;;;;;;;;5092219;28;20196;-83
2024/02/19 04:00:51;;;;;;;17.23;11.10;;;;;;;;;;5090172;28;20200;-84
2024/02/19 04:03:18;;;;;;;15.80;10.57;;;;;;;;;;5091661;28;20239;-83
2024/02/19 04:05:45;;;;;;;19.23;11.13;;;;;;;;;;5095055;28;20196;-83
2024/02/19 04:08:12;;;;;;;16.10;10.83;;;;;;;;;;5095926;28;20557;-84
2024/02/19 04:10:40;;;;;;;15.00;10.33;;;;;;;;;;5095814;28;20601;-83
2024/02/19 04:13:08;;;;;;;16.60;10.27;;;;;;;;;;5102591;28;20192;-83
2024/02/19 04:15:35;;;;;;;13.93;10.00;;;;;;;;;;5115598;28;20199;-83
2024/02/19 04:18:01;;;;;;;15.33;10.57;;;;;;;;;;5098977;28;20197;-84
2024/02/19 04:20:28;;;;;;;14.73;9.77;;;;;;;;;;5094023;28;20220;-84
2024/02/19 04:22:55;;;;;;;16.83;10.77;;;;;;;;;;5100200;28;20195;-83
2024/02/19 04:25:22;;;;;;;17.60;11.27;;;;;;;;;;5115825;28;20625;-82
2024/02/19 04:27:50;;;;;;;17.23;12.00;;;;;;;;;;5115891;28;20203;-83
2024/02/19 04:30:17;;;;;;;15.30;11.90;;;;;;;;;;5115840;28;20231;-83
2024/02/19 04:32:44;;;;;;;16.67;11.50;;;;;;;;;;5116083;28;20223;-83
2024/02/19 04:35:11;;;;;;;18.43;12.23;;;;;;;;;;5115338;28;20199;-84
2024/02/19 04:37:38;;;;;;;16.40;11.87;;;;;;;;;;5115009;28;20206;-84
2024/02/19 04:40:07;;;;;;;16.50;11.67;;;;;;;;;;5114955;28;20559;-84
2024/02/19 04:42:34;;;;;;;19.10;11.97;;;;;;;;;;5115957;28;20200;-84
2024/02/19 04:45:02;;;;;;;16.87;11.70;;;;;;;;;;5115324;28;20203;-83
2024/02/19 04:47:29;;;;;;;16.07;11.83;;;;;;;;;;5108081;28;20214;-84
2024/02/19 04:49:55;;;;;;;15.87;10.90;;;;;;;;;;5087885;28;20235;-82
2024/02/19 04:52:22;;;;;;;16.23;12.33;;;;;;;;;;5112205;28;20241;-83
2024/02/19 04:54:49;;;;;;;19.60;12.87;;;;;;;;;;5115726;28;20210;-84
2024/02/19 04:57:16;;;;;;;16.00;12.53;;;;;;;;;;5115205;28;20602;-83
2024/02/19 04:59:42;;;;;;;17.50;10.97;;;;;;;;;;5114684;28;20203;-84
2024/02/19 05:02:11;;;;;;;19.93;13.40;;;;;;;;;;5114910;28;20256;-84
2024/02/19 05:04:41;;;;;;;16.07;11.73;;;;;;;;;;5115082;28;20222;-83
2024/02/19 05:07:08;;;;;;;16.43;10.77;;;;;;;;;;5114489;28;20203;-84
2024/02/19 05:09:35;;;;;;;18.53;13.60;;;;;;;;;;5114570;28;20211;-85
2024/02/19 05:12:01;;;;;;;17.60;13.17;;;;;;;;;;5103446;28;20211;-84
2024/02/19 05:14:28;;;;;;;21.93;13.03;;;;;;;;;;5094761;28;20203;-84
2024/02/19 05:16:56;;;;;;;20.83;12.93;;;;;;;;;;5094328;28;20196;-84
2024/02/19 05:19:24;;;;;;;17.37;12.13;;;;;;;;;;5094076;28;20196;-85
2024/02/19 05:21:51;;;;;;;18.33;12.93;;;;;;;;;;5072790;28;20198;-84
2024/02/19 05:24:18;;;;;;;16.00;10.80;;;;;;;;;;5074825;28;20193;-84
2024/02/19 05:26:44;;;;;;;19.63;13.03;;;;;;;;;;5080912;28;20679;-85
2024/02/19 05:29:12;;;;;;;17.23;12.17;;;;;;;;;;5093862;28;20200;-84
2024/02/19 05:31:41;;;;;;;16.97;11.30;;;;;;;;;;5092290;28;20751;-85
2024/02/19 05:34:09;;;;;;;17.77;11.17;;;;;;;;;;5087866;28;20225;-85
2024/02/19 05:36:38;;;;;;;20.37;12.37;;;;;;;;;;5073826;28;20251;-83
2024/02/19 05:39:10;;;;;;;19.17;11.30;;;;;;;;;;5073613;28;20205;-84
2024/02/19 05:41:37;;;;;;;17.43;11.77;;;;;;;;;;5073704;28;20207;-83
2024/02/19 05:44:04;;;;;;;14.77;10.33;;;;;;;;;;5072080;28;20254;-81
2024/02/19 05:46:32;;;;;;;19.37;11.30;;;;;;;;;;5073334;28;20201;-83
2024/02/19 05:48:58;;;;;;;19.53;11.80;;;;;;;;;;5079660;28;20216;-87
2024/02/19 05:51:26;;;;;;;18.57;11.80;;;;;;;;;;5093604;28;20223;-85
2024/02/19 05:53:55;;;;;;;19.37;12.10;;;;;;;;;;5098642;28;20612;-87
2024/02/19 05:56:22;;;;;;;15.27;11.40;;;;;;;;;;5077578;28;20208;-91
2024/02/19 05:58:49;;;;;;;16.27;11.90;;;;;;;;;;5107606;28;20207;-91
2024/02/19 06:01:16;;;;;;;15.07;10.80;;;;;;;;;;5115209;28;20195;-90
2024/02/19 06:03:43;;;;;;;16.43;11.20;;;;;;;;;;5114899;28;20196;-91
2024/02/19 06:06:10;;;;;;;19.03;11.90;;;;;;;;;;5096350;28;20208;-91
2024/02/19 06:08:40;;;;;;;18.00;11.33;;;;;;;;;;5099587;28;20219;-91
2024/02/19 06:11:08;;;;;;;17.80;12.27;;;;;;;;;;5114650;28;20276;-90
2024/02/19 06:13:35;;;;;;;20.60;14.73;;;;;;;;;;5113821;28;20248;-91
2024/02/19 06:16:02;;;;;;;20.50;15.13;;;;;;;;;;5114661;28;20191;-91
2024/02/19 06:18:29;;;;;;;19.80;15.03;;;;;;;;;;5114762;28;20218;-91
2024/02/19 06:20:55;;;;;;;23.13;13.83;;;;;;;;;;5112006;28;20191;-91
2024/02/19 06:23:22;;;;;;;18.07;12.17;;;;;;;;;;5112239;28;20191;-90
2024/02/19 06:25:49;;;;;;;19.90;13.17;;;;;;;;;;5092975;28;20203;-90
2024/02/19 06:28:18;;;;;;;18.80;12.97;;;;;;;;;;5091281;28;20615;-90
2024/02/19 06:30:45;;;;;;;18.50;12.73;;;;;;;;;;5092775;28;20233;-90
2024/02/19 06:33:11;;;;;;;23.77;17.43;;;;;;;;;;5093436;28;20220;-91
2024/02/19 06:35:40;;;;;;;23.63;18.07;;;;;;;;;;5106008;28;20203;-91
2024/02/19 06:38:09;;;;;;;20.50;15.30;;;;;;;;;;5093064;28;20218;-91
2024/02/19 06:40:36;;;;;;;19.30;14.03;;;;;;;;;;5093327;28;20291;-90
2024/02/19 06:43:02;;;;;;;16.73;13.10;;;;;;;;;;5093790;28;20709;-91
2024/02/19 06:45:31;;;;;;;16.63;13.47;;;;;;;;;;5093000;28;20208;-90
2024/02/19 06:47:57;;;;;;;19.10;13.67;;;;;;;;;;5093009;28;20290;-91
2024/02/19 06:50:24;;;;;;;18.13;15.47;;;;;;;;;;5092589;28;20222;-90
2024/02/19 06:52:51;;;;;;;18.67;15.00;;;;;;;;;;5093034;28;20196;-91
2024/02/19 06:55:18;;;;;;;17.27;12.23;;;;;;;;;;5107034;28;20200;-91
2024/02/19 06:57:45;;;;;;;43.53;25.13;;;;;;;;;;5097484;28;20295;-90
2024/02/19 07:00:13;;;;;;;50.87;31.23;;;;;;;;;;5093100;28;20200;-90
2024/02/19 07:02:43;;;;;;;32.37;20.37;;;;;;;;;;5093257;28;20284;-91
2024/02/19 07:05:10;;;;;;;41.97;26.10;;;;;;;;;;5106276;28;20203;-90
2024/02/19 07:07:37;;;;;;;27.80;20.00;;;;;;;;;;5093231;28;20288;-92
2024/02/19 07:10:05;;;;;;;21.67;15.93;;;;;;;;;;5092464;28;20542;-90
2024/02/19 07:12:32;;;;;;;22.90;15.37;;;;;;;;;;5099229;28;20196;-90
2024/02/19 07:14:59;;;;;;;18.43;13.40;;;;;;;;;;5096709;28;20196;-91
2024/02/19 07:17:26;;;;;;;20.27;13.47;;;;;;;;;;5092574;28;20204;-91
2024/02/19 07:19:54;;;;;;;21.30;13.33;;;;;;;;;;5089681;28;20841;-91
2024/02/19 07:22:21;;;;;;;17.57;11.40;;;;;;;;;;5092266;28;20234;-90
2024/02/19 07:24:47;;;;;;;19.70;13.77;;;;;;;;;;5097616;28;20196;-91
2024/02/19 07:27:14;;;;;;;18.53;11.37;;;;;;;;;;5092555;28;20197;-90
2024/02/19 07:29:41;;;;;;;17.23;13.17;;;;;;;;;;5092214;28;20620;-92
2024/02/19 07:32:08;;;;;;;16.53;12.63;;;;;;;;;;5074449;28;20251;-90
2024/02/19 07:34:35;;;;;;;15.77;12.33;;;;;;;;;;5108556;28;20242;-91
2024/02/19 07:37:03;;;;;;;15.00;11.40;;;;;;;;;;5092140;28;20254;-91
2024/02/19 07:39:30;;;;;;;18.37;14.53;;;;;;;;;;5076278;28;20666;-91
2024/02/19 07:41:57;;;;;;;13.23;11.27;;;;;;;;;;5106072;28;20612;-90
2024/02/19 07:44:24;;;;;;;21.63;12.30;;;;;;;;;;5083096;28;20211;-90
2024/02/19 07:46:51;;;;;;;16.20;10.93;;;;;;;;;;5086409;28;20208;-90
2024/02/19 07:49:18;;;;;;;50.07;31.43;;;;;;;;;;5096316;28;20207;-90
2024/02/19 07:51:45;;;;;;;75.83;40.97;;;;;;;;;;5097041;28;20634;-90
2024/02/19 07:54:13;;;;;;;117.23;63.80;;;;;;;;;;5099511;28;20912;-90
2024/02/19 07:56:40;;;;;;;37.63;26.07;;;;;;;;;;5108355;28;20623;-91
2024/02/19 07:59:07;;;;;;;39.10;28.03;;;;;;;;;;5095941;28;20211;-91
2024/02/19 08:01:34;;;;;;;32.53;29.03;;;;;;;;;;5096240;28;20207;-90
2024/02/19 08:04:00;;;;;;;20.20;14.87;;;;;;;;;;5096148;28;20203;-91
2024/02/19 08:06:28;;;;;;;16.90;12.87;;;;;;;;;;5096584;28;20236;-91
2024/02/19 08:08:55;;;;;;;28.17;17.70;;;;;;;;;;5096152;28;20245;-91
2024/02/19 08:11:23;;;;;;;26.23;18.20;;;;;;;;;;5096001;28;20227;-91
2024/02/19 08:13:50;;;;;;;19.17;13.80;;;;;;;;;;5096192;28;20254;-90
2024/02/19 08:16:17;;;;;;;19.57;13.90;;;;;;;;;;5096612;28;20211;-91
2024/02/19 08:18:44;;;;;;;23.60;14.50;;;;;;;;;;5095759;28;20196;-91
2024/02/19 08:21:10;;;;;;;17.37;10.80;;;;;;;;;;5095521;28;20211;-92
2024/02/19 08:23:40;;;;;;;20.37;15.53;;;;;;;;;;5100364;28;20188;-91
2024/02/19 08:26:10;;;;;;;30.07;19.43;;;;;;;;;;5103384;28;20200;-91
2024/02/19 08:28:41;;;;;;;19.13;12.27;;;;;;;;;;5081713;28;20654;-91
2024/02/19 08:31:08;;;;;;;14.53;12.93;;;;;;;;;;5095385;28;20273;-92
2024/02/19 08:33:35;;;;;;;14.30;10.20;;;;;;;;;;5095028;28;20568;-92
2024/02/19 08:36:01;;;;;;;12.37;8.70;;;;;;;;;;5094490;28;20207;-91
2024/02/19 08:38:28;;;;;;;15.50;10.67;;;;;;;;;;5094157;28;20213;-91
2024/02/19 08:40:55;;;;;;;12.47;8.03;;;;;;;;;;5094263;28;20206;-91
2024/02/19 08:43:22;;;;;;;16.23;9.90;;;;;;;;;;5094276;28;20200;-91
2024/02/19 08:45:50;;;;;;;21.33;16.93;;;;;;;;;;5094066;28;20647;-91
2024/02/19 08:48:17;;;;;;;20.70;15.33;;;;;;;;;;5102989;28;20609;-91
2024/02/19 08:50:45;;;;;;;11.33;8.57;;;;;;;;;;5088210;28;20226;-91
2024/02/19 08:53:12;;;;;;;11.90;8.30;;;;;;;;;;5093373;28;20189;-92
2024/02/19 08:55:44;;;;;;;14.40;8.30;;;;;;;;;;5095423;28;20628;-92
2024/02/19 08:58:12;;;;;;;15.13;8.17;;;;;;;;;;5114241;28;20263;-91
2024/02/19 09:00:39;;;;;;;13.37;9.23;;;;;;;;;;5096827;28;20246;-91
2024/02/19 09:03:09;;;;;;;12.03;8.43;;;;;;;;;;5094044;28;20654;-91
2024/02/19 09:05:40;;;;;;;12.77;8.43;;;;;;;;;;5093603;28;20211;-90
2024/02/19 09:08:09;;;;;;;11.37;8.03;;;;;;;;;;5093369;28;20212;-90
2024/02/19 09:10:36;;;;;;;13.87;10.17;;;;;;;;;;5098895;28;20199;-90
2024/02/19 09:13:02;;;;;;;12.70;8.17;;;;;;;;;;5103844;28;20270;-91
2024/02/19 09:15:29;;;;;;;12.00;8.57;;;;;;;;;;5093422;28;20196;-91
2024/02/19 09:17:56;;;;;;;15.57;10.23;;;;;;;;;;5093329;28;20204;-91
2024/02/19 09:20:24;;;;;;;15.13;9.97;;;;;;;;;;5093580;28;20200;-91
2024/02/19 09:22:51;;;;;;;13.50;10.23;;;;;;;;;;5093832;28;20204;-90
2024/02/19 09:25:18;;;;;;;11.50;8.43;;;;;;;;;;5098539;28;20199;-91
2024/02/19 09:27:45;;;;;;;44.03;27.70;;;;;;;;;;5099928;28;20215;-92
2024/02/19 09:30:12;;;;;;;22.07;13.53;;;;;;;;;;5093494;28;20295;-91
2024/02/19 09:32:40;;;;;;;12.73;9.53;;;;;;;;;;5050727;28;1212182;-90
2024/02/19 09:35:09;;;;;;;18.67;13.90;;;;;;;;;;5080691;28;20257;-92
2024/02/19 09:37:38;;;;;;;19.17;15.33;;;;;;;;;;5094096;28;20197;-91
2024/02/19 09:40:06;;;;;;;23.50;16.73;;;;;;;;;;5094257;28;20216;-91
2024/02/19 09:42:34;;;;;;;16.17;11.27;;;;;;;;;;5095225;28;20249;-91
2024/02/19 09:45:01;;;;;;;14.87;9.90;;;;;;;;;;5097375;28;20585;-91
2024/02/19 09:47:28;;;;;;;16.70;11.77;;;;;;;;;;5073872;28;20205;-90
2024/02/19 09:49:55;;;;;;;16.40;10.27;;;;;;;;;;5082769;28;20211;-90
2024/02/19 09:52:24;;;;;;;15.30;10.73;;;;;;;;;;5093688;28;20701;-91
2024/02/19 09:54:53;;;;;;;14.67;10.47;;;;;;;;;;5094098;28;20238;-91
2024/02/19 09:57:20;;;;;;;16.20;11.53;;;;;;;;;;5093633;28;20204;-91
2024/02/19 09:59:48;;;;;;;15.40;10.60;;;;;;;;;;5093866;28;20200;-90
2024/02/19 10:02:18;;;;;;;15.33;10.93;;;;;;;;;;5092990;28;20201;-90
2024/02/19 10:04:45;;;;;;;13.40;10.70;;;;;;;;;;5093688;28;20200;-90
2024/02/19 10:07:16;;;;;;;15.70;11.23;;;;;;;;;;5093453;28;20239;-91
2024/02/19 10:09:43;;;;;;;19.10;10.90;;;;;;;;;;5103769;28;20203;-90
2024/02/19 10:12:11;;;;;;;14.23;10.43;;;;;;;;;;5095567;28;20220;-91
2024/02/19 10:14:40;;;;;;;14.80;10.53;;;;;;;;;;5093328;28;20201;-90
2024/02/19 10:17:10;;;;;;;16.27;9.60;;;;;;;;;;5093687;28;20215;-90
2024/02/19 10:19:38;;;;;;;16.53;11.60;;;;;;;;;;5093532;28;20200;-91
2024/02/19 10:22:05;;;;;;;15.80;11.03;;;;;;;;;;5092925;28;20211;-91
2024/02/19 10:24:32;;;;;;;28.13;18.53;;;;;;;;;;5093118;28;20668;-91
2024/02/19 10:26:58;;;;;;;44.57;29.73;;;;;;;;;;5092878;28;20580;-90
2024/02/19 10:29:28;;;;;;;21.27;12.27;;;;;;;;;;5093170;28;20200;-90
2024/02/19 10:31:54;;;;;;;17.70;10.47;;;;;;;;;;5080089;28;20659;-91
2024/02/19 10:34:22;;;;;;;16.73;10.70;;;;;;;;;;5093119;28;20686;-91
2024/02/19 10:36:49;;;;;;;16.37;12.40;;;;;;;;;;5093101;28;20196;-91
2024/02/19 10:39:16;;;;;;;14.33;10.63;;;;;;;;;;5094225;28;20211;-90
2024/02/19 10:41:44;;;;;;;17.50;10.90;;;;;;;;;;5105477;28;20257;-91
2024/02/19 10:44:11;;;;;;;17.37;10.90;;;;;;;;;;5092706;28;20201;-91
2024/02/19 10:46:40;;;;;;;21.33;13.00;;;;;;;;;;5092971;28;20204;-90
2024/02/19 10:49:07;;;;;;;20.23;13.80;;;;;;;;;;5105102;28;20210;-91
2024/02/19 10:51:34;;;;;;;22.17;13.93;;;;;;;;;;5073053;28;20217;-90
2024/02/19 10:54:02;;;;;;;21.47;12.13;;;;;;;;;;5099277;28;20264;-91
2024/02/19 10:56:35;;;;;;;17.27;11.37;;;;;;;;;;5083295;28;20222;-91
2024/02/19 10:59:02;;;;;;;50.57;31.10;;;;;;;;;;5092653;28;20196;-90
2024/02/19 11:01:40;;;;;;;21.40;15.70;;;;;;;;;;5092790;28;20618;-91
2024/02/19 11:04:22;;;;;;;23.50;14.50;;;;;;;;;;5093344;28;20199;-90
2024/02/19 11:06:52;;;;;;;19.57;13.90;;;;;;;;;;5092285;28;20205;-91
2024/02/19 11:09:19;;;;;;;20.47;12.90;;;;;;;;;;5092486;28;20224;-90
2024/02/19 11:11:47;;;;;;;20.47;12.27;;;;;;;;;;5094840;28;20304;-91
2024/02/19 11:14:16;;;;;;;18.77;13.33;;;;;;;;;;5103961;28;20600;-90
2024/02/19 11:16:44;;;;;;;23.77;14.77;;;;;;;;;;5091155;28;20726;-90
2024/02/19 11:19:12;;;;;;;22.00;13.17;;;;;;;;;;5081671;28;20203;-90
2024/02/19 11:21:39;;;;;;;20.40;14.10;;;;;;;;;;5092596;28;20628;-90
2024/02/19 11:24:08;;;;;;;22.07;13.57;;;;;;;;;;5092755;28;20203;-91
2024/02/19 11:26:35;;;;;;;21.43;13.17;;;;;;;;;;5091708;28;20728;-90
2024/02/19 11:29:02;;;;;;;21.27;12.67;;;;;;;;;;5092264;28;20196;-91
2024/02/19 11:31:29;;;;;;;20.77;14.13;;;;;;;;;;5092167;28;20218;-90
2024/02/19 11:33:59;;;;;;;25.27;17.60;;;;;;;;;;5082083;28;20233;-91
2024/02/19 11:36:26;;;;;;;25.23;16.63;;;;;;;;;;5105408;28;20287;-91
2024/02/19 11:38:55;;;;;;;21.90;15.70;;;;;;;;;;5092227;28;20200;-90
2024/02/19 11:41:23;;;;;;;22.13;16.60;;;;;;;;;;5094473;28;20610;-91
2024/02/19 11:43:50;;;;;;;21.87;15.07;;;;;;;;;;5100607;28;20609;-91
2024/02/19 11:46:16;;;;;;;31.07;19.30;;;;;;;;;;5105807;28;20200;-91
2024/02/19 11:48:43;;;;;;;36.73;25.60;;;;;;;;;;5104800;28;20203;-91
2024/02/19 11:51:11;;;;;;;21.37;14.83;;;;;;;;;;5100666;28;20205;-91
2024/02/19 11:53:40;;;;;;;22.67;15.03;;;;;;;;;;5084674;28;20224;-91
2024/02/19 11:56:08;;;;;;;25.00;16.47;;;;;;;;;;5091470;28;20204;-90
2024/02/19 11:58:38;;;;;;;23.43;17.23;;;;;;;;;;5092715;28;20215;-90
2024/02/19 12:01:05;;;;;;;25.37;17.13;;;;;;;;;;5091933;28;20577;-91
2024/02/19 12:03:34;;;;;;;20.67;14.93;;;;;;;;;;5092867;28;20211;-91
2024/02/19 12:06:02;;;;;;;21.73;15.03;;;;;;;;;;5112149;28;20198;-90
2024/02/19 12:08:31;;;;;;;24.43;15.27;;;;;;;;;;5098450;28;20204;-91
2024/02/19 12:10:58;;;;;;;23.90;15.10;;;;;;;;;;5104773;28;20243;-90
2024/02/19 12:13:25;;;;;;;19.17;15.33;;;;;;;;;;5091595;28;20277;-91
2024/02/19 12:15:52;;;;;;;18.57;14.33;;;;;;;;;;5092034;28;20200;-90
2024/02/19 12:18:19;;;;;;;22.40;15.03;;;;;;;;;;5104246;28;20203;-91
2024/02/19 12:20:46;;;;;;;18.93;14.13;;;;;;;;;;5092006;28;20203;-90
2024/02/19 12:23:14;;;;;;;22.03;14.70;;;;;;;;;;5091832;28;20200;-90
2024/02/19 12:25:43;;;;;;;22.43;15.70;;;;;;;;;;5089634;28;20204;-90
2024/02/19 12:28:09;;;;;;;23.17;14.87;;;;;;;;;;5108845;28;20244;-91
2024/02/19 12:30:36;;;;;;;19.40;12.00;;;;;;;;;;5085317;28;20200;-90
2024/02/19 12:33:03;;;;;;;24.13;14.43;;;;;;;;;;5095233;28;20223;-90
2024/02/19 12:35:31;;;;;;;20.23;13.63;;;;;;;;;;5095113;28;20192;-89
2024/02/19 12:37:58;;;;;;;19.23;13.17;;;;;;;;;;5096248;28;20197;-89
2024/02/19 12:40:25;;;;;;;21.40;14.83;;;;;;;;;;5093259;28;20655;-91
2024/02/19 12:42:53;;;;;;;22.17;13.23;;;;;;;;;;5092362;28;20658;-90
2024/02/19 12:45:20;;;;;;;18.27;14.40;;;;;;;;;;5095774;28;20197;-90
2024/02/19 12:47:46;;;;;;;21.13;14.20;;;;;;;;;;5095426;28;20616;-90
2024/02/19 12:50:15;;;;;;;18.13;13.03;;;;;;;;;;5095276;28;20201;-90
2024/02/19 12:52:42;;;;;;;23.33;16.97;;;;;;;;;;5094764;28;20229;-90
2024/02/19 12:55:09;;;;;;;55.07;34.97;;;;;;;;;;5094944;28;20196;-91
2024/02/19 12:57:37;;;;;;;37.50;28.60;;;;;;;;;;5094730;28;20208;-90
2024/02/19 13:00:09;;;;;;;21.10;17.90;;;;;;;;;;5094719;28;20200;-90
2024/02/19 13:02:35;;;;;;;21.30;14.67;;;;;;;;;;5095012;28;20196;-90
2024/02/19 13:05:02;;;;;;;22.10;16.10;;;;;;;;;;5094988;28;20196;-90
2024/02/19 13:07:31;;;;;;;19.77;13.90;;;;;;;;;;5094966;28;20200;-90
2024/02/19 13:09:57;;;;;;;24.33;14.43;;;;;;;;;;5094741;28;20245;-91
2024/02/19 13:12:24;;;;;;;15.27;12.30;;;;;;;;;;5094919;28;20246;-90
2024/02/19 13:14:51;;;;;;;18.43;12.77;;;;;;;;;;5094945;28;20203;-91
2024/02/19 13:17:20;;;;;;;16.90;11.53;;;;;;;;;;5094289;28;20197;-91
2024/02/19 13:19:48;;;;;;;26.37;16.87;;;;;;;;;;5095200;28;20261;-90
2024/02/19 13:22:15;;;;;;;20.73;15.70;;;;;;;;;;5107652;28;20192;-91
2024/02/19 13:24:41;;;;;;;18.03;12.43;;;;;;;;;;5094463;28;20591;-91
2024/02/19 13:27:09;;;;;;;18.80;13.27;;;;;;;;;;5094669;28;20200;-90
2024/02/19 13:29:36;;;;;;;19.27;12.37;;;;;;;;;;5094064;28;20197;-90
2024/02/19 13:32:02;;;;;;;17.80;13.23;;;;;;;;;;5102856;28;20203;-90
2024/02/19 13:34:31;;;;;;;19.87;15.13;;;;;;;;;;5111715;28;20306;-91
2024/02/19 13:36:57;;;;;;;22.57;15.00;;;;;;;;;;5093191;28;20239;-91
2024/02/19 13:39:25;;;;;;;31.47;23.13;;;;;;;;;;5103936;28;20196;-90
2024/02/19 13:41:52;;;;;;;35.67;26.23;;;;;;;;;;5094204;28;20223;-91
2024/02/19 13:44:19;;;;;;;35.20;25.97;;;;;;;;;;5093802;28;20219;-90
2024/02/19 13:46:46;;;;;;;43.63;28.73;;;;;;;;;;5094372;28;20205;-90
2024/02/19 13:49:14;;;;;;;33.73;25.67;;;;;;;;;;5095425;28;20239;-90
2024/02/19 13:51:43;;;;;;;20.80;16.90;;;;;;;;;;5104362;28;20204;-91
2024/02/19 13:54:09;;;;;;;26.57;19.60;;;;;;;;;;5093990;28;20216;-90
2024/02/19 13:56:39;;;;;;;19.87;16.10;;;;;;;;;;5093943;28;20638;-90
2024/02/19 13:59:07;;;;;;;25.70;18.87;;;;;;;;;;5094128;28;20228;-90
2024/02/19 14:01:34;;;;;;;22.57;17.47;;;;;;;;;;5102867;28;20191;-90
2024/02/19 14:04:01;;;;;;;18.13;13.00;;;;;;;;;;5082114;28;20253;-91
2024/02/19 14:06:28;;;;;;;20.37;15.47;;;;;;;;;;5093733;28;20213;-90
2024/02/19 14:08:56;;;;;;;24.00;16.10;;;;;;;;;;5092883;28;20667;-90
2024/02/19 14:11:23;;;;;;;27.20;19.90;;;;;;;;;;5093863;28;20207;-90
2024/02/19 14:13:50;;;;;;;17.93;14.60;;;;;;;;;;5093138;28;20257;-90
2024/02/19 14:16:16;;;;;;;19.60;15.10;;;;;;;;;;5093687;28;20196;-91
2024/02/19 14:18:43;;;;;;;18.37;14.40;;;;;;;;;;5106378;28;20200;-90